Nassau, Minnesota
Current Conditions -  °F | °C
As of 5:54 AM on Wednesday 28 Jan 2015 (Local Time) from KDXX Reporting Station
Clear Clear  
Wind Chill: 26°   Ceiling: Unl
Heat Index: 36°   Visibility: 7mi
Dew Point: 34°   Wind: 16mph
Humidity: 93%   Direction: 140°SE
Pressure: 29.84"   Gusts: NA
Location:  45.07°N, 96.44°W
Report Text: KDXX 281154Z AUTO 14014KT 7SM CLR 02/01 A2984 RMK AO2
Loading
Personal Weather Stations






























Interactive Weather Map New forecast layout! Learn more

10-Day Weather Forecast

Advertisements
Track Severe Weather on mobile